createdAt,value
2016-05-29T00:00:01.792Z,18.6
2016-05-29T00:00:11.760Z,18.6
2016-05-29T00:00:21.745Z,18.5
2016-05-29T00:00:31.745Z,18.5
2016-05-29T00:00:41.760Z,18.5
2016-05-29T00:00:51.591Z,18.5
2016-05-29T00:01:01.748Z,18.5
2016-05-29T00:01:11.732Z,18.6
2016-05-29T00:01:21.732Z,18.6
2016-05-29T00:01:44.404Z,18.6
2016-05-29T00:01:52.204Z,18.5
2016-05-29T00:02:02.204Z,18.6
2016-05-29T00:02:12.063Z,18.6
2016-05-29T00:02:22.173Z,18.6
2016-05-29T00:02:32.188Z,18.6
2016-05-29T00:02:42.188Z,18.7
2016-05-29T00:02:52.175Z,18.5
2016-05-29T00:03:02.175Z,18.5
2016-05-29T00:03:12.175Z,18.5
2016-05-29T00:03:22.175Z,18.6
2016-05-29T00:03:32.221Z,18.4
2016-05-29T00:03:42.159Z,18.4
2016-05-29T00:03:51.865Z,18.5
2016-05-29T00:04:02.162Z,18.5
2016-05-29T00:04:12.162Z,18.5
2016-05-29T00:04:22.146Z,18.5
2016-05-29T00:04:32.162Z,18.5
2016-05-29T00:04:42.162Z,18.5
2016-05-29T00:04:52.149Z,18.5
2016-05-29T00:05:02.696Z,18.4
2016-05-29T00:05:12.165Z,18.4
2016-05-29T00:05:21.993Z,18.4
2016-05-29T00:05:32.040Z,18.3
2016-05-29T00:05:42.009Z,18.4
2016-05-29T00:05:52.621Z,18.3
2016-05-29T00:06:02.746Z,18.4
2016-05-29T00:06:12.340Z,18.3
2016-05-29T00:06:22.121Z,18.2
2016-05-29T00:06:32.137Z,18.2
2016-05-29T00:06:42.121Z,18.2
2016-05-29T00:06:52.123Z,18.2
2016-05-29T00:07:02.123Z,18.2
2016-05-29T00:07:12.123Z,18.3
2016-05-29T00:07:22.186Z,18.4
2016-05-29T00:07:31.982Z,18.3
2016-05-29T00:07:41.811Z,18.3
2016-05-29T00:07:52.110Z,18.3
2016-05-29T00:08:02.142Z,18.4
2016-05-29T00:08:12.110Z,18.4
2016-05-29T00:08:22.110Z,18.4
2016-05-29T00:08:32.095Z,18.3
2016-05-29T00:08:42.110Z,18.4
2016-05-29T00:08:52.098Z,18.4
2016-05-29T00:09:02.082Z,18.5
2016-05-29T00:09:12.098Z,18.4
2016-05-29T00:09:22.223Z,18.5
2016-05-29T00:09:32.082Z,18.5
2016-05-29T00:09:42.067Z,18.6
2016-05-29T00:09:52.084Z,18.6
2016-05-29T00:10:02.115Z,18.5
2016-05-29T00:10:11.944Z,18.5
2016-05-29T00:10:22.444Z,18.5
2016-05-29T00:10:32.069Z,18.3
2016-05-29T00:10:42.100Z,18.4
2016-05-29T00:10:52.072Z,18.4
2016-05-29T00:11:02.056Z,18.4
2016-05-29T00:11:12.056Z,18.4
2016-05-29T00:11:22.181Z,18.4
2016-05-29T00:11:32.056Z,18.5
2016-05-29T00:11:42.368Z,18.4
2016-05-29T00:11:52.058Z,18.5
2016-05-29T00:12:01.902Z,18.5
2016-05-29T00:12:12.058Z,18.4
2016-05-29T00:12:21.886Z,18.4
2016-05-29T00:12:32.042Z,18.4
2016-05-29T00:12:42.120Z,18.4
2016-05-29T00:12:52.109Z,18.4
2016-05-29T00:13:02.046Z,18.5
2016-05-29T00:13:12.031Z,18.5
2016-05-29T00:13:22.109Z,18.5
2016-05-29T00:13:32.046Z,18.5
2016-05-29T00:13:42.031Z,18.5
2016-05-29T00:13:52.048Z,18.6
2016-05-29T00:14:02.111Z,18.5
2016-05-29T00:14:11.876Z,18.4
2016-05-29T00:14:22.017Z,18.3
2016-05-29T00:14:32.048Z,18.3
2016-05-29T00:14:42.017Z,18.4
2016-05-29T00:14:52.035Z,18.3
2016-05-29T00:15:01.910Z,18.4
2016-05-29T00:15:11.863Z,18.4
2016-05-29T00:15:22.035Z,18.4
2016-05-29T00:15:32.003Z,18.5
2016-05-29T00:15:42.019Z,18.4
2016-05-29T00:15:51.991Z,18.5
2016-05-29T00:16:01.991Z,18.6
2016-05-29T00:16:11.694Z,18.4
2016-05-29T00:16:21.991Z,18.5
2016-05-29T00:16:31.991Z,18.6
2016-05-29T00:16:41.819Z,18.4
2016-05-29T00:16:51.994Z,18.4
2016-05-29T00:17:01.994Z,18.4
2016-05-29T00:17:11.822Z,18.3
2016-05-29T00:17:21.978Z,18.2
2016-05-29T00:17:31.822Z,18.2
2016-05-29T00:17:41.822Z,18.2
2016-05-29T00:17:51.966Z,18.3
2016-05-29T00:18:01.997Z,18.2
2016-05-29T00:18:11.966Z,18.2
2016-05-29T00:18:21.841Z,18.4
2016-05-29T00:18:31.809Z,18.3
2016-05-29T00:18:41.825Z,18.3
2016-05-29T00:18:51.953Z,18.4
2016-05-29T00:19:01.984Z,18.4
2016-05-29T00:19:11.969Z,18.3
2016-05-29T00:19:21.969Z,18.3
2016-05-29T00:19:31.953Z,18.2
2016-05-29T00:19:42.047Z,18.1
2016-05-29T00:19:51.955Z,18.1
2016-05-29T00:20:02.611Z,18.1
2016-05-29T00:20:11.767Z,18.1
2016-05-29T00:20:21.783Z,18.1
2016-05-29T00:20:32.361Z,18.1
2016-05-29T00:20:41.955Z,18.2
2016-05-29T00:20:52.349Z,18.1
2016-05-29T00:21:02.083Z,18.2
2016-05-29T00:21:12.302Z,18.3
2016-05-29T00:21:21.927Z,18.2
2016-05-29T00:21:31.755Z,18.3
2016-05-29T00:21:41.911Z,18.3
2016-05-29T00:21:51.945Z,18.3
2016-05-29T00:22:01.758Z,18.3
2016-05-29T00:22:11.914Z,18.2
2016-05-29T00:22:21.961Z,18.3
2016-05-29T00:22:31.883Z,18.2
2016-05-29T00:22:41.930Z,18.3
2016-05-29T00:22:51.932Z,18.2
2016-05-29T00:23:01.900Z,18.3
2016-05-29T00:23:11.900Z,18.3
2016-05-29T00:23:21.729Z,18.3
2016-05-29T00:23:31.885Z,18.3
2016-05-29T00:23:41.900Z,18.2
2016-05-29T00:23:51.872Z,18.4
2016-05-29T00:24:01.872Z,18.3
2016-05-29T00:24:11.716Z,18.4
2016-05-29T00:24:21.935Z,18.2
2016-05-29T00:24:31.872Z,18.4
2016-05-29T00:24:41.872Z,18.4
2016-05-29T00:24:51.703Z,18.4
2016-05-29T00:25:01.985Z,18.4
2016-05-29T00:25:11.860Z,18.4
2016-05-29T00:25:21.891Z,18.4
2016-05-29T00:25:31.719Z,18.4
2016-05-29T00:25:41.953Z,18.4
2016-05-29T00:25:51.862Z,18.4
2016-05-29T00:26:01.862Z,18.4
2016-05-29T00:26:11.846Z,18.5
2016-05-29T00:26:21.862Z,18.6
2016-05-29T00:26:31.690Z,18.5
2016-05-29T00:26:41.705Z,18.5
2016-05-29T00:26:51.833Z,18.5
2016-05-29T00:27:01.849Z,18.5
2016-05-29T00:27:11.693Z,18.6
2016-05-29T00:27:21.677Z,18.5
2016-05-29T00:27:31.849Z,18.5
2016-05-29T00:27:41.865Z,18.5
2016-05-29T00:27:51.835Z,18.5
2016-05-29T00:28:01.679Z,18.5
2016-05-29T00:28:11.663Z,18.6
2016-05-29T00:28:21.898Z,18.7
2016-05-29T00:28:31.679Z,18.7
2016-05-29T00:28:41.820Z,18.6
2016-05-29T00:28:51.807Z,18.6
2016-05-29T00:29:01.823Z,18.6
2016-05-29T00:29:11.666Z,18.6
2016-05-29T00:29:21.791Z,18.7
2016-05-29T00:29:31.807Z,18.7
2016-05-29T00:29:41.838Z,18.6
2016-05-29T00:29:51.826Z,18.6
2016-05-29T00:30:01.638Z,18.7
2016-05-29T00:30:11.654Z,18.6
2016-05-29T00:30:21.669Z,18.6
2016-05-29T00:30:31.779Z,18.7
2016-05-29T00:30:41.779Z,18.7
2016-05-29T00:30:51.782Z,18.7
2016-05-29T00:31:01.844Z,18.7
2016-05-29T00:31:11.766Z,18.7
2016-05-29T00:31:21.782Z,18.7
2016-05-29T00:31:31.797Z,18.7
2016-05-29T00:31:41.782Z,18.7
2016-05-29T00:31:51.643Z,18.7
2016-05-29T00:32:01.612Z,18.7
2016-05-29T00:32:11.799Z,18.7
2016-05-29T00:32:21.784Z,18.6
2016-05-29T00:32:31.753Z,18.6
2016-05-29T00:32:41.799Z,18.8
2016-05-29T00:32:51.756Z,18.7
2016-05-29T00:33:01.771Z,18.7
2016-05-29T00:33:11.584Z,18.7
2016-05-29T00:33:21.599Z,18.8
2016-05-29T00:33:31.740Z,18.7
2016-05-29T00:33:41.740Z,18.8
2016-05-29T00:33:51.727Z,18.9
2016-05-29T00:34:01.727Z,18.9
2016-05-29T00:34:11.727Z,18.7
2016-05-29T00:34:21.759Z,18.8
2016-05-29T00:34:31.712Z,18.8
2016-05-29T00:34:41.727Z,18.7
2016-05-29T00:34:51.730Z,18.7
2016-05-29T00:35:01.543Z,18.7
2016-05-29T00:35:12.324Z,18.7
2016-05-29T00:35:21.574Z,18.8
2016-05-29T00:35:32.480Z,18.9
2016-05-29T00:35:43.043Z,18.8
2016-05-29T00:35:51.732Z,18.9
2016-05-29T00:36:02.467Z,18.8
2016-05-29T00:36:12.326Z,18.7
2016-05-29T00:36:21.764Z,18.8
2016-05-29T00:36:31.701Z,18.8
2016-05-29T00:36:41.701Z,18.8
2016-05-29T00:36:51.720Z,18.8
2016-05-29T00:37:01.704Z,18.8
2016-05-29T00:37:11.704Z,18.8
2016-05-29T00:37:21.688Z,18.8
2016-05-29T00:37:31.688Z,18.9
2016-05-29T00:37:41.704Z,18.9
2016-05-29T00:37:51.519Z,18.7
2016-05-29T00:38:01.675Z,18.8
2016-05-29T00:38:11.675Z,18.8
2016-05-29T00:38:21.394Z,18.8
2016-05-29T00:38:31.675Z,18.8
2016-05-29T00:38:41.519Z,18.8
2016-05-29T00:38:51.678Z,18.8
2016-05-29T00:39:01.537Z,18.8
2016-05-29T00:39:11.506Z,18.7
2016-05-29T00:39:21.693Z,18.7
2016-05-29T00:39:31.678Z,18.7
2016-05-29T00:39:41.709Z,18.7
2016-05-29T00:39:51.650Z,18.7
2016-05-29T00:40:01.650Z,18.7
2016-05-29T00:40:11.634Z,18.6
2016-05-29T00:40:21.525Z,18.6
2016-05-29T00:40:31.712Z,18.7
2016-05-29T00:40:41.665Z,18.7
2016-05-29T00:40:51.496Z,18.6
2016-05-29T00:41:01.653Z,18.7
2016-05-29T00:41:11.637Z,18.7
2016-05-29T00:41:21.637Z,18.6
2016-05-29T00:41:31.621Z,18.7
2016-05-29T00:41:41.699Z,18.7
2016-05-29T00:41:51.467Z,18.7
2016-05-29T00:42:01.639Z,18.6
2016-05-29T00:42:11.623Z,18.6
2016-05-29T00:42:21.639Z,18.6
2016-05-29T00:42:31.608Z,18.6
2016-05-29T00:42:41.608Z,18.6
2016-05-29T00:42:51.611Z,18.7
2016-05-29T00:43:01.626Z,18.7
2016-05-29T00:43:11.595Z,18.7
2016-05-29T00:43:21.595Z,18.6
2016-05-29T00:43:31.595Z,18.7
2016-05-29T00:43:41.517Z,18.7
2016-05-29T00:43:51.598Z,18.7
2016-05-29T00:44:01.629Z,18.8
2016-05-29T00:44:11.598Z,18.8
2016-05-29T00:44:21.614Z,18.8
2016-05-29T00:44:31.582Z,18.8
2016-05-29T00:44:41.614Z,18.9
2016-05-29T00:44:51.584Z,18.9
2016-05-29T00:45:01.428Z,18.8
2016-05-29T00:45:11.600Z,18.9
2016-05-29T00:45:21.569Z,18.9
2016-05-29T00:45:31.569Z,18.8
2016-05-29T00:45:41.600Z,18.9
2016-05-29T00:45:51.572Z,18.9
2016-05-29T00:46:01.556Z,18.9
2016-05-29T00:46:11.541Z,18.9
2016-05-29T00:46:21.572Z,18.9
2016-05-29T00:46:31.556Z,18.8
2016-05-29T00:46:41.556Z,18.8
2016-05-29T00:46:51.544Z,18.7
2016-05-29T00:47:01.559Z,18.8
2016-05-29T00:47:11.559Z,18.8
2016-05-29T00:47:21.559Z,18.8
2016-05-29T00:47:31.544Z,18.8
2016-05-29T00:47:41.528Z,18.9
2016-05-29T00:47:51.374Z,18.7
2016-05-29T00:48:01.389Z,18.7
2016-05-29T00:48:11.530Z,18.7
2016-05-29T00:48:21.530Z,18.7
2016-05-29T00:48:31.374Z,18.7
2016-05-29T00:48:41.374Z,18.7
2016-05-29T00:48:51.549Z,18.7
2016-05-29T00:49:01.517Z,18.5
2016-05-29T00:49:11.517Z,18.6
2016-05-29T00:49:21.517Z,18.5
2016-05-29T00:49:31.517Z,18.5
2016-05-29T00:49:41.502Z,18.5
2016-05-29T00:49:51.739Z,18.5
2016-05-29T00:50:01.536Z,18.6
2016-05-29T00:50:11.630Z,18.5
2016-05-29T00:50:21.364Z,18.5
2016-05-29T00:50:31.380Z,18.5
2016-05-29T00:50:41.520Z,18.4
2016-05-29T00:50:51.350Z,18.5
2016-05-29T00:51:01.663Z,18.5
2016-05-29T00:51:11.429Z,18.5
2016-05-29T00:51:21.335Z,18.5
2016-05-29T00:51:31.491Z,18.5
2016-05-29T00:51:41.475Z,18.5
2016-05-29T00:51:51.479Z,18.6
2016-05-29T00:52:01.479Z,18.7
2016-05-29T00:52:11.479Z,18.5
2016-05-29T00:52:21.479Z,18.5
2016-05-29T00:52:31.464Z,18.5
2016-05-29T00:52:41.464Z,18.4
2016-05-29T00:52:51.466Z,18.4
2016-05-29T00:53:01.388Z,18.4
2016-05-29T00:53:11.450Z,18.4
2016-05-29T00:53:21.310Z,18.5
2016-05-29T00:53:31.466Z,18.5
2016-05-29T00:53:41.466Z,18.5
2016-05-29T00:53:51.453Z,18.5
2016-05-29T00:54:01.297Z,18.5
2016-05-29T00:54:11.469Z,18.5
2016-05-29T00:54:21.438Z,18.6
2016-05-29T00:54:31.438Z,18.6
2016-05-29T00:54:41.469Z,18.6
2016-05-29T00:54:51.455Z,18.6
2016-05-29T00:55:01.440Z,18.7
2016-05-29T00:55:11.440Z,18.7
2016-05-29T00:55:21.424Z,18.7
2016-05-29T00:55:31.455Z,18.7
2016-05-29T00:55:41.424Z,18.5
2016-05-29T00:55:51.427Z,18.6
2016-05-29T00:56:01.411Z,18.5
2016-05-29T00:56:11.271Z,18.6
2016-05-29T00:56:21.411Z,18.5
2016-05-29T00:56:31.411Z,18.4
2016-05-29T00:56:41.411Z,18.4
2016-05-29T00:56:51.273Z,18.5
2016-05-29T00:57:01.398Z,18.5
2016-05-29T00:57:11.413Z,18.5
2016-05-29T00:57:21.398Z,18.4
2016-05-29T00:57:30.835Z,18.5
2016-05-29T00:57:41.398Z,18.4
2016-05-29T00:57:51.402Z,18.4
2016-05-29T00:58:01.402Z,18.5
2016-05-29T00:58:11.245Z,18.6
2016-05-29T00:58:21.386Z,18.5
2016-05-29T00:58:31.230Z,18.5
2016-05-29T00:58:41.386Z,18.6
2016-05-29T00:58:51.388Z,18.6
2016-05-29T00:59:01.372Z,18.6
2016-05-29T00:59:11.388Z,18.5
2016-05-29T00:59:21.372Z,18.7
2016-05-29T00:59:31.669Z,18.7
2016-05-29T00:59:41.372Z,18.6
2016-05-29T00:59:51.390Z,18.7
2016-05-29T01:00:01.359Z,18.7
2016-05-29T01:00:11.218Z,18.7
2016-05-29T01:00:21.359Z,18.8
2016-05-29T01:00:31.343Z,18.7
2016-05-29T01:00:41.343Z,18.7
2016-05-29T01:00:51.394Z,18.7
2016-05-29T01:01:01.207Z,18.8
2016-05-29T01:01:11.222Z,18.8
2016-05-29T01:01:21.269Z,18.8
2016-05-29T01:01:31.332Z,18.7
2016-05-29T01:01:41.378Z,18.8
2016-05-29T01:01:51.209Z,18.7
2016-05-29T01:02:01.334Z,18.7
2016-05-29T01:02:11.349Z,18.8
2016-05-29T01:02:21.318Z,18.8
2016-05-29T01:02:31.318Z,18.8
2016-05-29T01:02:41.318Z,18.8
2016-05-29T01:02:51.180Z,18.7
2016-05-29T01:03:01.321Z,18.9
2016-05-29T01:03:11.305Z,18.9
2016-05-29T01:03:21.337Z,18.7
2016-05-29T01:03:31.305Z,18.9
2016-05-29T01:03:41.321Z,18.9
2016-05-29T01:03:51.307Z,18.8
2016-05-29T01:04:01.307Z,18.9
2016-05-29T01:04:11.307Z,18.9
2016-05-29T01:04:21.307Z,18.9
2016-05-29T01:04:31.292Z,18.9
2016-05-29T01:04:41.292Z,18.9
2016-05-29T01:04:51.373Z,18.9
2016-05-29T01:05:01.295Z,18.7
2016-05-29T01:05:11.295Z,18.9
2016-05-29T01:05:21.654Z,18.9
2016-05-29T01:05:31.763Z,19
2016-05-29T01:05:41.138Z,18.9
2016-05-29T01:05:51.157Z,18.8
2016-05-29T01:06:01.641Z,18.9
2016-05-29T01:06:11.298Z,18.9
2016-05-29T01:06:21.391Z,18.9
2016-05-29T01:06:31.313Z,18.9
2016-05-29T01:06:41.282Z,19
2016-05-29T01:06:51.363Z,19
2016-05-29T01:07:01.254Z,19
2016-05-29T01:07:11.254Z,19
2016-05-29T01:07:21.254Z,18.9
2016-05-29T01:07:31.332Z,19
2016-05-29T01:07:41.254Z,19
2016-05-29T01:07:51.256Z,18.9
2016-05-29T01:08:01.271Z,18.9
2016-05-29T01:08:11.084Z,19
2016-05-29T01:08:21.240Z,18.9
2016-05-29T01:08:31.084Z,18.9
2016-05-29T01:08:41.256Z,18.9
2016-05-29T01:08:51.243Z,18.9
2016-05-29T01:09:01.228Z,18.9
2016-05-29T01:09:11.243Z,18.9
2016-05-29T01:09:21.243Z,18.9
2016-05-29T01:09:31.228Z,18.8
2016-05-29T01:09:41.071Z,18.9
2016-05-29T01:09:51.230Z,18.8
2016-05-29T01:10:01.230Z,18.9
2016-05-29T01:10:11.245Z,18.8
2016-05-29T01:10:21.073Z,18.9
2016-05-29T01:10:31.058Z,18.9
2016-05-29T01:10:41.073Z,18.9
2016-05-29T01:10:51.279Z,18.8
2016-05-29T01:11:01.061Z,18.8
2016-05-29T01:11:11.201Z,18.8
2016-05-29T01:11:21.201Z,18.8
2016-05-29T01:11:31.248Z,18.8
2016-05-29T01:11:41.201Z,18.8
2016-05-29T01:11:51.048Z,18.8
2016-05-29T01:12:01.189Z,18.9
2016-05-29T01:12:11.236Z,18.8
2016-05-29T01:12:21.204Z,18.8
2016-05-29T01:12:31.189Z,18.7
2016-05-29T01:12:41.173Z,18.9
2016-05-29T01:12:51.238Z,18.9
2016-05-29T01:13:01.175Z,18.8
2016-05-29T01:13:11.175Z,18.8
2016-05-29T01:13:21.175Z,18.7
2016-05-29T01:13:31.175Z,18.8
2016-05-29T01:13:41.159Z,18.8
2016-05-29T01:13:51.162Z,18.9
2016-05-29T01:14:01.162Z,18.8
2016-05-29T01:14:11.225Z,18.8
2016-05-29T01:14:21.162Z,18.8
2016-05-29T01:14:31.147Z,18.8
2016-05-29T01:14:40.991Z,18.7
2016-05-29T01:14:51.165Z,18.8
2016-05-29T01:15:01.165Z,18.8
2016-05-29T01:15:11.165Z,18.9
2016-05-29T01:15:21.150Z,18.8
2016-05-29T01:15:31.165Z,18.7
2016-05-29T01:15:41.134Z,18.6
2016-05-29T01:15:51.137Z,18.6
2016-05-29T01:16:01.184Z,18.6
2016-05-29T01:16:11.137Z,18.5
2016-05-29T01:16:20.981Z,18.6
2016-05-29T01:16:31.122Z,18.6
2016-05-29T01:16:41.122Z,18.7
2016-05-29T01:16:51.124Z,18.7
2016-05-29T01:17:01.108Z,18.7
2016-05-29T01:17:11.124Z,18.7
2016-05-29T01:17:21.124Z,18.7
2016-05-29T01:17:31.108Z,18.7
2016-05-29T01:17:41.108Z,18.7
2016-05-29T01:17:51.111Z,18.7
2016-05-29T01:18:01.095Z,18.7
2016-05-29T01:18:11.095Z,18.7
2016-05-29T01:18:21.127Z,18.5
2016-05-29T01:18:30.955Z,18.6
2016-05-29T01:18:41.095Z,18.7
2016-05-29T01:18:50.973Z,18.6
2016-05-29T01:19:01.145Z,18.7
2016-05-29T01:19:10.942Z,18.6
2016-05-29T01:19:21.098Z,18.6
2016-05-29T01:19:31.098Z,18.6
2016-05-29T01:19:40.926Z,18.6
2016-05-29T01:19:51.069Z,18.7
2016-05-29T01:20:01.100Z,18.6
2016-05-29T01:20:11.413Z,18.6
2016-05-29T01:20:21.928Z,18.6
2016-05-29T01:20:31.913Z,18.6
2016-05-29T01:20:40.913Z,18.7
2016-05-29T01:20:51.135Z,18.7
2016-05-29T01:21:01.150Z,18.7
2016-05-29T01:21:10.978Z,18.7
2016-05-29T01:21:21.072Z,18.6
2016-05-29T01:21:30.947Z,18.7
2016-05-29T01:21:41.056Z,18.6
2016-05-29T01:21:51.059Z,18.5
2016-05-29T01:22:00.903Z,18.4
2016-05-29T01:22:10.919Z,18.4
2016-05-29T01:22:21.075Z,18.5
2016-05-29T01:22:30.903Z,18.5
2016-05-29T01:22:41.106Z,18.5
2016-05-29T01:22:51.046Z,18.6
2016-05-29T01:23:01.046Z,18.7
2016-05-29T01:23:11.030Z,18.6
2016-05-29T01:23:21.015Z,18.6
2016-05-29T01:23:31.046Z,18.7
2016-05-29T01:23:40.874Z,18.6
2016-05-29T01:23:51.049Z,18.6
2016-05-29T01:24:01.018Z,18.6
2016-05-29T01:24:11.018Z,18.6
2016-05-29T01:24:21.018Z,18.6
2016-05-29T01:24:31.018Z,18.5
2016-05-29T01:24:41.002Z,18.5
2016-05-29T01:24:51.021Z,18.4
2016-05-29T01:25:01.005Z,18.3
2016-05-29T01:25:11.021Z,18.4
2016-05-29T01:25:21.114Z,18.3
2016-05-29T01:25:30.989Z,18.2
2016-05-29T01:25:41.021Z,18.4
2016-05-29T01:25:51.008Z,18.4
2016-05-29T01:26:01.008Z,18.4
2016-05-29T01:26:10.992Z,18.4
2016-05-29T01:26:20.977Z,18.6
2016-05-29T01:26:30.992Z,18.5
2016-05-29T01:26:40.977Z,18.5
2016-05-29T01:26:51.010Z,18.4
2016-05-29T01:27:00.979Z,18.5
2016-05-29T01:27:10.994Z,18.5
2016-05-29T01:27:21.088Z,18.5
2016-05-29T01:27:30.994Z,18.4
2016-05-29T01:27:40.963Z,18.5
2016-05-29T01:27:50.997Z,18.5
2016-05-29T01:28:00.966Z,18.6
2016-05-29T01:28:10.966Z,18.6
2016-05-29T01:28:20.982Z,18.6
2016-05-29T01:28:30.966Z,18.7
2016-05-29T01:28:40.950Z,18.6
2016-05-29T01:28:50.953Z,18.7
2016-05-29T01:29:00.828Z,18.6
2016-05-29T01:29:10.953Z,18.6
2016-05-29T01:29:20.953Z,18.6
2016-05-29T01:29:30.813Z,18.6
2016-05-29T01:29:40.938Z,18.6
2016-05-29T01:29:50.972Z,18.5
2016-05-29T01:30:01.019Z,18.6
2016-05-29T01:30:10.941Z,18.6
2016-05-29T01:30:20.941Z,18.5
2016-05-29T01:30:30.972Z,18.5
2016-05-29T01:30:40.941Z,18.5
2016-05-29T01:30:50.818Z,18.5
2016-05-29T01:31:00.958Z,18.5
2016-05-29T01:31:10.943Z,18.5
2016-05-29T01:31:20.958Z,18.5
2016-05-29T01:31:30.833Z,18.5
2016-05-29T01:31:40.912Z,18.5
2016-05-29T01:31:50.946Z,18.5
2016-05-29T01:32:00.993Z,18.5
2016-05-29T01:32:10.899Z,18.5
2016-05-29T01:32:20.899Z,18.5
2016-05-29T01:32:30.930Z,18.3
2016-05-29T01:32:40.915Z,18.4
2016-05-29T01:32:50.902Z,18.4
2016-05-29T01:33:00.902Z,18.4
2016-05-29T01:33:10.918Z,18.4
2016-05-29T01:33:20.746Z,18.4
2016-05-29T01:33:30.886Z,18.4
2016-05-29T01:33:40.902Z,18.4
2016-05-29T01:33:50.888Z,18.4
2016-05-29T01:34:00.951Z,18.4
2016-05-29T01:34:10.873Z,18.3
2016-05-29T01:34:20.873Z,18.4
2016-05-29T01:34:30.888Z,18.4
2016-05-29T01:34:40.888Z,18.4
2016-05-29T01:34:50.876Z,18.5
2016-05-29T01:35:00.719Z,18.5
2016-05-29T01:35:10.954Z,18.5
2016-05-29T01:35:20.954Z,18.5
2016-05-29T01:35:31.298Z,18.5
2016-05-29T01:35:41.173Z,18.6
2016-05-29T01:35:51.816Z,18.6
2016-05-29T01:36:01.160Z,18.6
2016-05-29T01:36:10.847Z,18.5
2016-05-29T01:36:21.254Z,18.6
2016-05-29T01:36:30.847Z,18.6
2016-05-29T01:36:40.926Z,18.6
2016-05-29T01:36:50.849Z,18.6
2016-05-29T01:37:00.849Z,18.6
2016-05-29T01:37:10.818Z,18.6
2016-05-29T01:37:20.881Z,18.6
2016-05-29T01:37:30.678Z,18.5
2016-05-29T01:37:40.865Z,18.6
2016-05-29T01:37:50.852Z,18.7
2016-05-29T01:38:00.868Z,18.7
2016-05-29T01:38:10.821Z,18.7
2016-05-29T01:38:20.821Z,18.7
2016-05-29T01:38:30.821Z,18.6
2016-05-29T01:38:40.852Z,18.7
2016-05-29T01:38:50.840Z,18.6
2016-05-29T01:39:00.652Z,18.6
2016-05-29T01:39:10.809Z,18.6
2016-05-29T01:39:20.855Z,18.7
2016-05-29T01:39:30.652Z,18.6
2016-05-29T01:39:40.809Z,18.6
2016-05-29T01:39:50.795Z,18.5
2016-05-29T01:40:00.857Z,18.6
2016-05-29T01:40:10.795Z,18.5
2016-05-29T01:40:21.092Z,18.4
2016-05-29T01:40:30.686Z,18.4
2016-05-29T01:40:40.623Z,18.4
2016-05-29T01:40:50.798Z,18.4
2016-05-29T01:41:00.782Z,18.4
2016-05-29T01:41:10.782Z,18.4
2016-05-29T01:41:20.829Z,18.4
2016-05-29T01:41:30.767Z,18.4
2016-05-29T01:41:40.798Z,18.4
2016-05-29T01:41:50.770Z,18.5
2016-05-29T01:42:00.785Z,18.5
2016-05-29T01:42:10.754Z,18.5
2016-05-29T01:42:20.785Z,18.5
2016-05-29T01:42:30.770Z,18.5
2016-05-29T01:42:40.832Z,18.6
2016-05-29T01:42:50.678Z,18.5
2016-05-29T01:43:00.756Z,18.7
2016-05-29T01:43:10.756Z,18.7
2016-05-29T01:43:20.740Z,18.6
2016-05-29T01:43:30.740Z,18.6
2016-05-29T01:43:40.740Z,18.6
2016-05-29T01:43:50.759Z,18.7
2016-05-29T01:44:00.775Z,18.7
2016-05-29T01:44:10.728Z,18.6
2016-05-29T01:44:20.743Z,18.6
2016-05-29T01:44:30.728Z,18.5
2016-05-29T01:44:40.743Z,18.6
2016-05-29T01:44:50.715Z,18.6
2016-05-29T01:45:00.762Z,18.5
2016-05-29T01:45:10.559Z,18.5
2016-05-29T01:45:20.731Z,18.5
2016-05-29T01:45:30.715Z,18.5
2016-05-29T01:45:40.746Z,18.5
2016-05-29T01:45:50.734Z,18.5
2016-05-29T01:46:00.749Z,18.5
2016-05-29T01:46:10.703Z,18.6
2016-05-29T01:46:20.718Z,18.5
2016-05-29T01:46:30.703Z,18.5
2016-05-29T01:46:40.703Z,18.5
2016-05-29T01:46:50.689Z,18.6
2016-05-29T01:47:00.705Z,18.5
2016-05-29T01:47:10.689Z,18.5
2016-05-29T01:47:20.689Z,18.6
2016-05-29T01:47:30.486Z,18.6
2016-05-29T01:47:40.533Z,18.5
2016-05-29T01:47:50.676Z,18.5
2016-05-29T01:48:00.551Z,18.5
2016-05-29T01:48:10.676Z,18.4
2016-05-29T01:48:20.989Z,18.4
2016-05-29T01:48:30.676Z,18.4
2016-05-29T01:48:40.708Z,18.4
2016-05-29T01:48:50.663Z,18.4
2016-05-29T01:49:00.663Z,18.4
2016-05-29T01:49:10.678Z,18.4
2016-05-29T01:49:20.725Z,18.5
2016-05-29T01:49:30.647Z,18.4
2016-05-29T01:49:40.960Z,18.5
2016-05-29T01:49:50.650Z,18.5
2016-05-29T01:50:00.713Z,18.6
2016-05-29T01:50:10.650Z,18.6
2016-05-29T01:50:20.728Z,18.6
2016-05-29T01:50:30.494Z,18.6
2016-05-29T01:50:40.509Z,18.6
2016-05-29T01:50:51.262Z,18.6
2016-05-29T01:51:01.325Z,18.7
2016-05-29T01:51:10.637Z,18.6
2016-05-29T01:51:20.559Z,18.6
2016-05-29T01:51:30.653Z,18.6
2016-05-29T01:51:40.669Z,18.6
2016-05-29T01:51:50.624Z,18.5
2016-05-29T01:52:00.624Z,18.5
2016-05-29T01:52:10.608Z,18.5
2016-05-29T01:52:20.655Z,18.5
2016-05-29T01:52:30.608Z,18.5
2016-05-29T01:52:40.671Z,18.4
2016-05-29T01:52:50.611Z,18.5
2016-05-29T01:53:00.627Z,18.4
2016-05-29T01:53:10.377Z,18.4
2016-05-29T01:53:20.455Z,18.5
2016-05-29T01:53:30.611Z,18.5
2016-05-29T01:53:40.658Z,18.6
2016-05-29T01:53:50.599Z,18.5
2016-05-29T01:54:00.599Z,18.6
2016-05-29T01:54:10.442Z,18.7
2016-05-29T01:54:20.630Z,18.6
2016-05-29T01:54:30.599Z,18.6
2016-05-29T01:54:40.583Z,18.7
2016-05-29T01:54:50.585Z,18.6
2016-05-29T01:55:00.647Z,18.5
2016-05-29T01:55:10.601Z,18.5
2016-05-29T01:55:20.569Z,18.5
2016-05-29T01:55:30.569Z,18.5
2016-05-29T01:55:40.647Z,18.5
2016-05-29T01:55:50.572Z,18.5
2016-05-29T01:56:00.604Z,18.5
2016-05-29T01:56:10.557Z,18.4
2016-05-29T01:56:20.557Z,18.4
2016-05-29T01:56:30.572Z,18.3
2016-05-29T01:56:40.635Z,18.4
2016-05-29T01:56:50.560Z,18.4
2016-05-29T01:57:00.607Z,18.3
2016-05-29T01:57:10.544Z,18.2
2016-05-29T01:57:20.575Z,18.3
2016-05-29T01:57:30.560Z,18.1
2016-05-29T01:57:40.638Z,18.2
2016-05-29T01:57:50.546Z,18.1
2016-05-29T01:58:00.562Z,18.1
2016-05-29T01:58:10.530Z,18.1
2016-05-29T01:58:20.562Z,18.1
2016-05-29T01:58:30.546Z,18.1
2016-05-29T01:58:40.530Z,18.1
2016-05-29T01:58:50.550Z,18.1
2016-05-29T01:59:00.550Z,18.1
2016-05-29T01:59:10.378Z,18.2
2016-05-29T01:59:20.534Z,18.2
2016-05-29T01:59:30.503Z,18.3
2016-05-29T01:59:40.581Z,18.3
2016-05-29T01:59:50.505Z,18.3
2016-05-29T02:00:00.536Z,18.3
2016-05-29T02:00:10.490Z,18.2
2016-05-29T02:00:20.396Z,18.4
2016-05-29T02:00:30.396Z,18.4
2016-05-29T02:00:40.490Z,18.4
2016-05-29T02:00:50.477Z,18.4
2016-05-29T02:01:00.336Z,18.5
2016-05-29T02:01:10.493Z,18.5
2016-05-29T02:01:20.508Z,18.4
2016-05-29T02:01:30.508Z,18.4
2016-05-29T02:01:40.368Z,18.5
2016-05-29T02:01:50.479Z,18.4
2016-05-29T02:02:00.354Z,18.5
2016-05-29T02:02:10.323Z,18.4
2016-05-29T02:02:20.463Z,18.4
2016-05-29T02:02:30.213Z,18.5
2016-05-29T02:02:40.479Z,18.4
2016-05-29T02:02:50.466Z,18.5
2016-05-29T02:03:00.466Z,18.5
2016-05-29T02:03:10.466Z,18.5
2016-05-29T02:03:20.466Z,18.5
2016-05-29T02:03:30.294Z,18.5
2016-05-29T02:03:40.513Z,18.5
2016-05-29T02:03:50.344Z,18.5
2016-05-29T02:04:00.454Z,18.5
2016-05-29T02:04:10.469Z,18.5
2016-05-29T02:04:20.454Z,18.5
2016-05-29T02:04:30.454Z,18.5
2016-05-29T02:04:40.282Z,18.5
2016-05-29T02:04:50.457Z,18.5
2016-05-29T02:05:00.316Z,18.5
2016-05-29T02:05:10.425Z,18.5
2016-05-29T02:05:20.285Z,18.5
2016-05-29T02:05:30.535Z,18.3
2016-05-29T02:05:40.988Z,18.3
2016-05-29T02:05:50.850Z,18.2
2016-05-29T02:06:00.132Z,18.2
2016-05-29T02:06:10.428Z,18.2
2016-05-29T02:06:20.491Z,18.2
2016-05-29T02:06:30.413Z,18.2
2016-05-29T02:06:40.413Z,18.3
2016-05-29T02:06:50.289Z,18.3
2016-05-29T02:07:00.414Z,18.4
2016-05-29T02:07:10.304Z,18.4
2016-05-29T02:07:20.429Z,18.4
2016-05-29T02:07:30.398Z,18.4
2016-05-29T02:07:40.429Z,18.5
2016-05-29T02:07:50.402Z,18.3
2016-05-29T02:08:00.418Z,18.4
2016-05-29T02:08:10.387Z,18.3
2016-05-29T02:08:20.090Z,18.3
2016-05-29T02:08:30.387Z,18.3
2016-05-29T02:08:40.402Z,18.3
2016-05-29T02:08:50.374Z,18.2
2016-05-29T02:09:00.436Z,18.2
2016-05-29T02:09:10.374Z,18.3
2016-05-29T02:09:20.233Z,18.2
2016-05-29T02:09:30.374Z,18.3
2016-05-29T02:09:40.358Z,18.3
2016-05-29T02:09:50.376Z,18.3
2016-05-29T02:10:00.376Z,18.4
2016-05-29T02:10:10.392Z,18.5
2016-05-29T02:10:20.392Z,18.4
2016-05-29T02:10:30.360Z,18.4
2016-05-29T02:10:40.376Z,18.4
2016-05-29T02:10:50.347Z,18.4
2016-05-29T02:11:00.222Z,18.4
2016-05-29T02:11:10.190Z,18.5
2016-05-29T02:11:20.378Z,18.5
2016-05-29T02:11:30.206Z,18.5
2016-05-29T02:11:40.487Z,18.5
2016-05-29T02:11:50.491Z,18.4
2016-05-29T02:12:00.413Z,18.5
2016-05-29T02:12:10.335Z,18.4
2016-05-29T02:12:20.335Z,18.5
2016-05-29T02:12:30.163Z,18.5
2016-05-29T02:12:40.382Z,18.5
2016-05-29T02:12:50.321Z,18.6
2016-05-29T02:13:00.400Z,18.6
2016-05-29T02:13:10.321Z,18.5
2016-05-29T02:13:20.212Z,18.5